createdAt,value
2018-08-02T00:00:42.872Z,60.65
2018-08-02T00:01:48.810Z,60.67
2018-08-02T00:03:00.296Z,61.24
2018-08-02T00:04:06.320Z,60.31
2018-08-02T00:05:13.233Z,60.50
2018-08-02T00:06:19.359Z,60.64
2018-08-02T00:07:25.327Z,60.82
2018-08-02T00:08:31.315Z,60.94
2018-08-02T00:09:37.385Z,60.76
2018-08-02T00:10:43.536Z,61.06
2018-08-02T00:11:49.959Z,61.55
2018-08-02T00:12:56.001Z,61.58
2018-08-02T00:14:01.988Z,61.97
2018-08-02T00:15:08.322Z,61.70
2018-08-02T00:16:14.343Z,61.49
2018-08-02T00:17:20.593Z,61.63
2018-08-02T00:18:26.921Z,61.73
2018-08-02T00:19:32.939Z,61.77
2018-08-02T00:20:39.239Z,62.11
2018-08-02T00:21:45.351Z,61.64
2018-08-02T00:22:57.589Z,61.79
2018-08-02T00:24:03.602Z,61.77
2018-08-02T00:25:09.723Z,61.76
2018-08-02T00:26:16.137Z,61.53
2018-08-02T00:27:25.512Z,61.72
2018-08-02T00:28:31.517Z,61.88
2018-08-02T00:29:37.545Z,61.79
2018-08-02T00:30:43.835Z,61.81
2018-08-02T00:31:50.245Z,61.64
2018-08-02T00:32:56.388Z,61.80
2018-08-02T00:34:02.631Z,62.01
2018-08-02T00:35:09.663Z,61.84
2018-08-02T00:36:16.005Z,61.77
2018-08-02T00:37:22.291Z,62.13
2018-08-02T00:38:28.635Z,61.99
2018-08-02T00:39:34.990Z,62.09
2018-08-02T00:40:41.232Z,61.78
2018-08-02T00:41:47.595Z,61.89
2018-08-02T00:42:53.880Z,61.91
2018-08-02T00:44:00.226Z,61.83
2018-08-02T00:45:05.911Z,62.03
2018-08-02T00:46:13.208Z,62.07
2018-08-02T00:47:19.404Z,62.28
2018-08-02T00:48:25.620Z,62.47
2018-08-02T00:49:31.938Z,62.17
2018-08-02T00:50:37.952Z,62.59
2018-08-02T00:51:44.356Z,62.59
2018-08-02T00:52:50.664Z,62.65
2018-08-02T00:53:56.998Z,62.84
2018-08-02T00:55:02.989Z,62.75
2018-08-02T00:56:09.391Z,62.63
2018-08-02T00:57:15.729Z,62.64
2018-08-02T00:58:22.033Z,62.34
2018-08-02T00:59:28.385Z,62.74
2018-08-02T01:00:34.377Z,62.58
2018-08-02T01:01:39.907Z,62.86
2018-08-02T01:02:46.427Z,62.93
2018-08-02T01:03:52.669Z,62.91
2018-08-02T01:04:59.632Z,63.00
2018-08-02T01:06:06.357Z,63.05
2018-08-02T01:07:12.727Z,62.86
2018-08-02T01:08:18.929Z,63.29
2018-08-02T01:09:25.241Z,63.38
2018-08-02T01:10:31.655Z,63.66
2018-08-02T01:11:37.746Z,63.92
2018-08-02T01:12:43.801Z,63.81
2018-08-02T01:13:50.178Z,63.96
2018-08-02T01:14:56.516Z,64.16
2018-08-02T01:16:03.367Z,64.72
2018-08-02T01:17:09.528Z,65.06
2018-08-02T01:18:16.329Z,65.49
2018-08-02T01:19:22.002Z,65.44
2018-08-02T01:20:27.870Z,65.78
2018-08-02T01:21:34.275Z,66.12
2018-08-02T01:22:40.572Z,66.80
2018-08-02T01:23:46.662Z,66.90
2018-08-02T01:24:52.730Z,67.31
2018-08-02T01:25:59.574Z,67.45
2018-08-02T01:27:05.266Z,67.58
2018-08-02T01:28:11.274Z,68.02
2018-08-02T01:29:17.228Z,68.23
2018-08-02T01:30:23.275Z,68.66
2018-08-02T01:31:29.489Z,69.06
2018-08-02T01:32:36.393Z,69.43
2018-08-02T01:33:42.774Z,69.77
2018-08-02T01:34:49.101Z,69.99
2018-08-02T01:35:55.056Z,70.13
2018-08-02T01:37:01.336Z,70.23
2018-08-02T01:38:08.344Z,70.43
2018-08-02T01:39:14.743Z,70.72
2018-08-02T01:40:21.103Z,70.94
2018-08-02T01:41:27.399Z,70.92
2018-08-02T01:42:33.361Z,71.28
2018-08-02T01:43:39.821Z,71.36
2018-08-02T01:44:45.117Z,71.43
2018-08-02T01:45:51.169Z,71.50
2018-08-02T01:46:57.627Z,71.63
2018-08-02T01:48:03.928Z,71.77
2018-08-02T01:49:10.233Z,72.11
2018-08-02T01:50:16.566Z,72.75
2018-08-02T01:51:22.943Z,72.65
2018-08-02T01:52:29.305Z,72.58
2018-08-02T01:53:36.442Z,72.96
2018-08-02T01:54:43.522Z,72.77
2018-08-02T01:55:49.859Z,72.61
2018-08-02T01:56:56.189Z,72.79
2018-08-02T01:58:02.478Z,73.29
2018-08-02T01:59:08.622Z,73.21
2018-08-02T02:00:15.153Z,73.25
2018-08-02T02:01:21.318Z,73.47
2018-08-02T02:02:27.427Z,73.23
2018-08-02T02:03:34.270Z,73.04
2018-08-02T02:04:40.657Z,73.04
2018-08-02T02:05:47.749Z,73.09
2018-08-02T02:06:53.651Z,73.29
2018-08-02T02:07:59.656Z,73.17
2018-08-02T02:09:05.194Z,73.51
2018-08-02T02:10:11.241Z,73.59
2018-08-02T02:11:17.178Z,73.59
2018-08-02T02:12:23.489Z,73.21
2018-08-02T02:13:29.828Z,73.17
2018-08-02T02:14:37.282Z,72.85
2018-08-02T02:15:43.465Z,72.33
2018-08-02T02:16:49.759Z,72.45
2018-08-02T02:17:56.092Z,72.38
2018-08-02T02:19:02.461Z,72.55
2018-08-02T02:20:08.264Z,72.65
2018-08-02T02:21:13.963Z,72.98
2018-08-02T02:22:20.126Z,72.93
2018-08-02T02:23:26.425Z,72.85
2018-08-02T02:24:32.720Z,72.75
2018-08-02T02:25:39.048Z,72.44
2018-08-02T02:26:45.475Z,72.42
2018-08-02T02:27:51.819Z,72.29
2018-08-02T02:28:58.065Z,72.26
2018-08-02T02:30:04.350Z,72.32
2018-08-02T02:31:10.389Z,72.17
2018-08-02T02:32:16.369Z,72.56
2018-08-02T02:33:22.765Z,72.16
2018-08-02T02:34:29.036Z,72.43
2018-08-02T02:35:35.344Z,72.54
2018-08-02T02:36:41.668Z,72.46
2018-08-02T02:37:48.018Z,72.71
2018-08-02T02:38:54.295Z,72.77
2018-08-02T02:40:00.236Z,73.36
2018-08-02T02:41:06.797Z,73.28
2018-08-02T02:42:12.786Z,73.61
2018-08-02T02:43:19.243Z,73.91
2018-08-02T02:44:25.860Z,74.12
2018-08-02T02:45:32.799Z,74.52
2018-08-02T02:46:39.892Z,74.98
2018-08-02T02:47:46.294Z,75.30
2018-08-02T02:48:52.607Z,75.37
2018-08-02T02:49:58.920Z,75.65
2018-08-02T02:51:05.316Z,75.46
2018-08-02T02:52:11.544Z,75.77
2018-08-02T02:53:17.856Z,76.40
2018-08-02T02:54:24.220Z,76.48
2018-08-02T02:55:30.516Z,76.91
2018-08-02T02:56:36.824Z,77.12
2018-08-02T02:57:43.136Z,77.00
2018-08-02T02:58:50.007Z,77.41
2018-08-02T02:59:56.317Z,77.26
2018-08-02T03:01:02.267Z,77.38
2018-08-02T03:02:08.693Z,77.47
2018-08-02T03:03:15.017Z,77.87
2018-08-02T03:04:21.392Z,78.05
2018-08-02T03:05:27.707Z,77.89
2018-08-02T03:06:34.040Z,78.15
2018-08-02T03:07:40.359Z,78.22
2018-08-02T03:08:46.632Z,78.38
2018-08-02T03:09:52.951Z,79.03
2018-08-02T03:10:58.905Z,79.12
2018-08-02T03:12:04.665Z,79.15
2018-08-02T03:13:11.004Z,79.01
2018-08-02T03:14:17.492Z,79.69
2018-08-02T03:15:23.807Z,79.79
2018-08-02T03:16:30.147Z,79.46
2018-08-02T03:17:36.086Z,79.05
2018-08-02T03:18:42.122Z,78.87
2018-08-02T03:19:49.201Z,79.47
2018-08-02T03:20:55.541Z,80.11
2018-08-02T03:22:02.747Z,80.18
2018-08-02T03:23:09.156Z,79.55
2018-08-02T03:24:15.941Z,79.18
2018-08-02T03:25:22.383Z,78.91
2018-08-02T03:26:28.704Z,79.19
2018-08-02T03:27:34.821Z,80.13
2018-08-02T03:28:41.104Z,80.68
2018-08-02T03:29:47.415Z,80.13
2018-08-02T03:30:53.422Z,80.17
2018-08-02T03:31:59.864Z,80.12
2018-08-02T03:33:05.875Z,80.31
2018-08-02T03:34:12.278Z,81.49
2018-08-02T03:35:18.699Z,81.71
2018-08-02T03:36:24.973Z,81.50
2018-08-02T03:37:31.992Z,81.86
2018-08-02T03:38:39.023Z,81.34
2018-08-02T03:39:45.439Z,82.35
2018-08-02T03:40:51.740Z,82.25
2018-08-02T03:41:58.134Z,82.86
2018-08-02T03:43:04.541Z,82.44
2018-08-02T03:44:11.188Z,81.86
2018-08-02T03:45:17.954Z,82.07
2018-08-02T03:46:24.453Z,81.91
2018-08-02T03:47:30.860Z,81.99
2018-08-02T03:48:37.143Z,82.16
2018-08-02T03:49:44.022Z,82.29
2018-08-02T03:50:50.421Z,83.33
2018-08-02T03:51:56.628Z,83.81
2018-08-02T03:53:03.476Z,84.15
2018-08-02T03:54:10.276Z,84.27
2018-08-02T03:55:16.253Z,84.57
2018-08-02T03:56:22.773Z,84.93
2018-08-02T03:57:29.122Z,85.06
2018-08-02T03:58:35.439Z,85.02
2018-08-02T03:59:41.841Z,85.06
2018-08-02T04:00:47.947Z,85.44
2018-08-02T04:01:54.252Z,85.52
2018-08-02T04:03:00.555Z,85.54
2018-08-02T04:04:07.097Z,85.87
2018-08-02T04:05:14.455Z,86.18
2018-08-02T04:06:22.697Z,86.30
2018-08-02T04:07:30.475Z,86.64
2018-08-02T04:08:39.222Z,86.54
2018-08-02T04:09:49.125Z,86.49
2018-08-02T04:10:56.554Z,86.22
2018-08-02T04:12:03.413Z,86.24
2018-08-02T04:13:09.777Z,86.23
2018-08-02T04:14:16.601Z,86.33
2018-08-02T04:15:23.136Z,86.19
2018-08-02T04:16:29.611Z,86.27
2018-08-02T04:17:35.517Z,86.42
2018-08-02T04:18:41.669Z,86.29
2018-08-02T04:19:48.008Z,86.72
2018-08-02T04:20:54.274Z,86.39
2018-08-02T04:22:00.271Z,86.42
2018-08-02T04:23:06.330Z,86.59
2018-08-02T04:24:13.792Z,86.87
2018-08-02T04:25:20.772Z,86.62
2018-08-02T04:26:27.253Z,86.85
2018-08-02T04:27:33.722Z,86.74
2018-08-02T04:28:40.294Z,86.73
2018-08-02T04:29:46.652Z,87.32
2018-08-02T04:30:53.004Z,86.91
2018-08-02T04:31:59.333Z,86.90
2018-08-02T04:33:05.761Z,87.09
2018-08-02T04:34:13.387Z,87.08
2018-08-02T04:35:21.355Z,87.17
2018-08-02T04:36:28.929Z,87.29
2018-08-02T04:37:36.703Z,87.13
2018-08-02T04:38:44.138Z,86.95
2018-08-02T04:39:51.056Z,87.15
2018-08-02T04:40:58.068Z,87.35
2018-08-02T04:42:04.442Z,87.30
2018-08-02T04:43:11.439Z,87.47
2018-08-02T04:44:17.786Z,87.52
2018-08-02T04:45:24.025Z,87.43
2018-08-02T04:46:30.241Z,87.45
2018-08-02T04:47:35.904Z,87.40
2018-08-02T04:48:42.171Z,87.10
2018-08-02T04:49:48.531Z,87.06
2018-08-02T04:50:54.784Z,87.47
2018-08-02T04:52:01.092Z,86.65
2018-08-02T04:53:07.092Z,86.51
2018-08-02T04:54:13.506Z,86.35
2018-08-02T04:55:19.472Z,86.44
2018-08-02T04:56:26.319Z,86.79
2018-08-02T04:57:32.595Z,86.39
2018-08-02T04:58:38.901Z,86.22
2018-08-02T04:59:45.284Z,86.91
2018-08-02T05:00:51.887Z,86.50
2018-08-02T05:01:58.220Z,86.35
2018-08-02T05:03:04.545Z,85.89
2018-08-02T05:04:10.820Z,85.83
2018-08-02T05:05:17.135Z,85.55
2018-08-02T05:06:23.566Z,86.35
2018-08-02T05:07:30.332Z,85.70
2018-08-02T05:08:37.128Z,85.46
2018-08-02T05:09:43.411Z,84.78
2018-08-02T05:10:51.186Z,85.45
2018-08-02T05:11:58.136Z,84.00
2018-08-02T05:13:04.556Z,84.46
2018-08-02T05:14:10.840Z,84.15
2018-08-02T05:15:17.111Z,82.29
2018-08-02T05:16:23.561Z,81.91
2018-08-02T05:17:30.037Z,81.18
2018-08-02T05:18:37.225Z,80.52
2018-08-02T05:19:43.592Z,79.95
2018-08-02T05:20:49.924Z,80.76
2018-08-02T05:21:56.416Z,81.69
2018-08-02T05:23:02.417Z,80.92
2018-08-02T05:24:08.902Z,81.17
2018-08-02T05:25:15.209Z,81.25
2018-08-02T05:26:21.551Z,81.20
2018-08-02T05:27:28.189Z,82.59
2018-08-02T05:28:34.539Z,82.89
2018-08-02T05:29:40.840Z,82.32
2018-08-02T05:30:47.279Z,82.03
2018-08-02T05:31:54.429Z,81.56
2018-08-02T05:33:00.732Z,81.62
2018-08-02T05:34:11.261Z,81.65
2018-08-02T05:35:17.750Z,81.28
2018-08-02T05:36:24.574Z,81.23
2018-08-02T05:37:30.788Z,79.99
2018-08-02T05:38:37.171Z,80.21
2018-08-02T05:39:43.593Z,79.84
2018-08-02T05:40:50.025Z,80.68
2018-08-02T05:41:55.930Z,80.60
2018-08-02T05:43:02.318Z,81.88
2018-08-02T05:44:08.285Z,81.95
2018-08-02T05:45:14.737Z,80.54
2018-08-02T05:46:20.668Z,79.69
2018-08-02T05:47:27.969Z,80.10
2018-08-02T05:48:34.669Z,79.89
2018-08-02T05:49:41.029Z,80.65
2018-08-02T05:50:47.421Z,80.90
2018-08-02T05:51:53.741Z,81.52
2018-08-02T05:53:00.049Z,81.52
2018-08-02T05:54:06.940Z,81.61
2018-08-02T05:55:13.413Z,81.54
2018-08-02T05:56:19.676Z,81.68
2018-08-02T05:57:25.989Z,81.52
2018-08-02T05:58:33.058Z,82.90
2018-08-02T05:59:39.356Z,82.17
2018-08-02T06:00:45.770Z,82.06
2018-08-02T06:01:52.197Z,82.39
2018-08-02T06:02:58.980Z,83.21
2018-08-02T06:04:05.810Z,82.85
2018-08-02T06:05:11.811Z,82.13
2018-08-02T06:06:17.768Z,82.44
2018-08-02T06:07:24.046Z,82.55
2018-08-02T06:08:30.361Z,81.96
2018-08-02T06:09:36.867Z,81.39
2018-08-02T06:10:43.167Z,81.64
2018-08-02T06:11:49.495Z,82.39
2018-08-02T06:12:55.779Z,83.45
2018-08-02T06:14:02.052Z,84.63
2018-08-02T06:15:07.979Z,84.40
2018-08-02T06:16:14.214Z,85.16
2018-08-02T06:17:21.086Z,85.58
2018-08-02T06:18:27.483Z,85.79
2018-08-02T06:19:33.953Z,86.01
2018-08-02T06:20:40.272Z,85.68
2018-08-02T06:21:46.595Z,84.41
2018-08-02T06:22:53.035Z,83.83
2018-08-02T06:23:59.244Z,83.89
2018-08-02T06:25:05.629Z,83.90
2018-08-02T06:26:11.310Z,83.91
2018-08-02T06:27:17.540Z,84.89
2018-08-02T06:28:23.868Z,84.57
2018-08-02T06:29:30.447Z,83.97
2018-08-02T06:30:36.814Z,83.66
2018-08-02T06:31:43.117Z,83.33
2018-08-02T06:32:49.559Z,83.56
2018-08-02T06:33:55.893Z,82.94
2018-08-02T06:35:02.185Z,82.59
2018-08-02T06:36:08.424Z,82.69
2018-08-02T06:38:24.618Z,82.77
2018-08-02T06:39:30.175Z,83.23
2018-08-02T06:40:35.757Z,83.21
2018-08-02T06:41:41.316Z,82.81
2018-08-02T06:42:46.851Z,83.50
2018-08-02T06:43:52.204Z,83.86
2018-08-02T06:44:57.844Z,84.33
2018-08-02T06:46:03.748Z,84.50
2018-08-02T06:47:09.111Z,84.19
2018-08-02T06:48:14.231Z,82.38
2018-08-02T06:49:20.659Z,82.51
2018-08-02T06:50:26.661Z,82.87
2018-08-02T06:51:32.971Z,82.67
2018-08-02T06:52:39.290Z,81.99
2018-08-02T06:53:45.590Z,82.43
2018-08-02T06:54:51.555Z,82.71
2018-08-02T06:55:58.756Z,83.50
2018-08-02T06:57:04.752Z,83.19
2018-08-02T06:58:10.790Z,83.32
2018-08-02T06:59:17.184Z,83.38
2018-08-02T07:00:24.140Z,83.07
2018-08-02T07:01:30.672Z,83.69
2018-08-02T07:02:37.111Z,85.18
2018-08-02T07:03:43.408Z,86.21
2018-08-02T07:04:50.363Z,86.35
2018-08-02T07:05:56.618Z,86.35
2018-08-02T07:07:02.941Z,85.83
2018-08-02T07:08:09.468Z,85.25
2018-08-02T07:09:15.911Z,85.49
2018-08-02T07:10:22.181Z,85.26
2018-08-02T07:11:28.501Z,85.43
2018-08-02T07:12:34.850Z,86.24
2018-08-02T07:13:41.119Z,87.53
2018-08-02T07:14:47.548Z,87.89
2018-08-02T07:15:53.841Z,90.29
2018-08-02T07:17:00.154Z,91.27
2018-08-02T07:18:06.832Z,91.99
2018-08-02T07:19:13.134Z,92.81
2018-08-02T07:20:19.178Z,92.18
2018-08-02T07:21:25.327Z,92.57
2018-08-02T07:22:31.635Z,92.01
2018-08-02T07:23:37.722Z,91.46
2018-08-02T07:24:44.166Z,91.68
2018-08-02T07:25:50.252Z,90.48
2018-08-02T07:26:56.564Z,92.54
2018-08-02T07:28:02.913Z,93.48
2018-08-02T07:29:09.212Z,93.73
2018-08-02T07:30:15.537Z,93.41
2018-08-02T07:31:22.568Z,91.93
2018-08-02T07:32:29.406Z,92.13
2018-08-02T07:33:35.841Z,92.99
2018-08-02T07:34:42.396Z,93.89
2018-08-02T07:35:48.735Z,93.11
2018-08-02T07:36:54.964Z,92.94
2018-08-02T07:38:01.273Z,92.39
2018-08-02T07:39:07.572Z,92.60
2018-08-02T07:40:13.845Z,92.29
2018-08-02T07:41:20.153Z,92.91
2018-08-02T07:42:26.455Z,93.38
2018-08-02T07:43:32.571Z,92.82
2018-08-02T07:44:38.926Z,92.87
2018-08-02T07:45:44.856Z,94.28
2018-08-02T07:46:52.089Z,94.13
2018-08-02T07:47:58.432Z,94.23
2018-08-02T07:49:04.906Z,93.99
2018-08-02T07:50:11.983Z,94.75
2018-08-02T07:51:18.401Z,95.98
2018-08-02T07:52:24.696Z,95.80
2018-08-02T07:53:31.032Z,94.94
2018-08-02T07:54:37.362Z,94.54
2018-08-02T07:55:43.698Z,94.08
2018-08-02T07:56:49.955Z,93.29
2018-08-02T07:57:56.254Z,92.30
2018-08-02T07:59:02.230Z,91.99
2018-08-02T08:00:08.477Z,91.04
2018-08-02T08:01:15.930Z,91.49
2018-08-02T08:02:22.092Z,92.45
2018-08-02T08:03:29.092Z,93.21
2018-08-02T08:04:35.488Z,94.30
2018-08-02T08:05:43.694Z,94.84
2018-08-02T08:06:50.182Z,95.16
2018-08-02T08:07:56.651Z,95.15
2018-08-02T08:09:02.858Z,95.10
2018-08-02T08:10:09.100Z,95.06
2018-08-02T08:11:15.136Z,94.60
2018-08-02T08:12:21.606Z,95.41
2018-08-02T08:13:27.892Z,96.36
2018-08-02T08:14:34.009Z,95.95
2018-08-02T08:15:40.467Z,96.47
2018-08-02T08:16:46.744Z,94.83
2018-08-02T08:17:52.717Z,93.64
2018-08-02T08:18:59.043Z,92.98
2018-08-02T08:20:04.735Z,93.26
2018-08-02T08:21:11.545Z,94.04
2018-08-02T08:22:18.111Z,94.99
2018-08-02T08:23:24.729Z,94.50
2018-08-02T08:24:31.458Z,95.40
2018-08-02T08:25:37.529Z,97.05
2018-08-02T08:26:44.411Z,97.04
2018-08-02T08:27:50.520Z,97.48
2018-08-02T08:28:56.793Z,97.11
2018-08-02T08:30:03.117Z,97.57
2018-08-02T08:31:09.420Z,96.69
2018-08-02T08:32:15.824Z,96.71
2018-08-02T08:33:22.392Z,95.54
2018-08-02T08:34:28.720Z,96.02
2018-08-02T08:35:34.971Z,95.75
2018-08-02T08:36:41.800Z,94.94
2018-08-02T08:37:48.346Z,95.75
2018-08-02T08:38:55.232Z,94.82
2018-08-02T08:40:02.972Z,94.14
2018-08-02T08:41:10.466Z,93.79
2018-08-02T08:42:16.750Z,93.27
2018-08-02T08:43:23.098Z,92.83
2018-08-02T08:44:29.698Z,91.74
2018-08-02T08:45:36.039Z,92.29
2018-08-02T08:46:42.489Z,91.88
2018-08-02T08:47:48.815Z,92.63
2018-08-02T08:48:55.073Z,91.35
2018-08-02T08:50:02.665Z,90.49
2018-08-02T08:51:09.369Z,91.53
2018-08-02T08:52:15.469Z,90.65
2018-08-02T08:53:22.439Z,88.08
2018-08-02T08:54:30.440Z,90.08
2018-08-02T08:55:37.224Z,86.19
2018-08-02T08:56:43.536Z,87.35
2018-08-02T08:57:49.783Z,85.99
2018-08-02T08:58:55.321Z,85.70
2018-08-02T09:00:01.436Z,85.45
2018-08-02T09:01:07.542Z,84.33
2018-08-02T09:02:14.073Z,86.08
2018-08-02T09:03:20.364Z,86.13
2018-08-02T09:04:26.328Z,86.24
2018-08-02T09:05:32.885Z,85.92
2018-08-02T09:06:39.183Z,86.89
2018-08-02T09:07:45.474Z,87.33
2018-08-02T09:08:51.808Z,87.77
2018-08-02T09:09:58.944Z,87.43
2018-08-02T09:11:05.742Z,87.51
2018-08-02T09:12:11.675Z,86.60
2018-08-02T09:13:17.959Z,84.70
2018-08-02T09:14:24.410Z,82.71
2018-08-02T09:15:30.925Z,81.25
2018-08-02T09:16:37.188Z,82.76
2018-08-02T09:17:43.515Z,83.35
2018-08-02T09:18:51.312Z,81.56
2018-08-02T09:19:57.730Z,79.70
2018-08-02T09:21:03.679Z,80.17
2018-08-02T09:22:09.763Z,80.28
2018-08-02T09:23:16.014Z,79.78
2018-08-02T09:24:21.946Z,79.28
2018-08-02T09:25:28.350Z,80.63
2018-08-02T09:26:34.313Z,80.55
2018-08-02T09:27:40.835Z,77.31
2018-08-02T09:28:47.144Z,78.63
2018-08-02T09:29:53.461Z,78.71
2018-08-02T09:30:59.805Z,79.29
2018-08-02T09:32:05.784Z,79.47
2018-08-02T09:33:12.373Z,79.88
2018-08-02T09:34:19.428Z,80.28
2018-08-02T09:35:25.775Z,79.91
2018-08-02T09:36:32.075Z,80.44
2018-08-02T09:37:38.670Z,80.04
2018-08-02T09:38:44.888Z,81.43
2018-08-02T09:39:51.209Z,81.18
2018-08-02T09:40:57.637Z,81.30
2018-08-02T09:42:04.304Z,80.88
2018-08-02T09:43:10.581Z,81.06
2018-08-02T09:44:17.669Z,81.54
2018-08-02T09:45:24.020Z,81.35
2018-08-02T09:46:30.395Z,81.23
2018-08-02T09:47:36.992Z,81.41
2018-08-02T09:48:43.240Z,82.50
2018-08-02T09:49:49.330Z,81.69
2018-08-02T09:50:55.735Z,82.61
2018-08-02T09:52:01.955Z,80.65
2018-08-02T09:53:08.261Z,79.86
2018-08-02T09:54:13.915Z,78.49
2018-08-02T09:55:19.872Z,78.78
2018-08-02T09:56:26.214Z,78.30
2018-08-02T09:57:33.212Z,77.33
2018-08-02T09:58:39.570Z,76.98
2018-08-02T09:59:46.010Z,75.99
2018-08-02T10:00:52.152Z,77.93
2018-08-02T10:01:59.332Z,75.65
2018-08-02T10:03:05.555Z,76.00
2018-08-02T10:04:11.517Z,74.88
2018-08-02T10:05:17.862Z,74.15
2018-08-02T10:06:23.819Z,74.36
2018-08-02T10:07:30.117Z,74.70
2018-08-02T10:08:36.442Z,75.51
2018-08-02T10:09:42.457Z,74.14
2018-08-02T10:10:48.880Z,73.86
2018-08-02T10:11:55.201Z,73.71
2018-08-02T10:13:01.448Z,73.17
2018-08-02T10:14:07.692Z,72.96
2018-08-02T10:15:14.029Z,73.47
2018-08-02T10:16:20.333Z,73.90
2018-08-02T10:17:26.739Z,73.72
2018-08-02T10:18:33.047Z,71.14
2018-08-02T10:19:39.378Z,71.31
2018-08-02T10:20:45.658Z,71.53
2018-08-02T10:21:51.645Z,69.44
2018-08-02T10:22:57.926Z,70.47
2018-08-02T10:24:03.822Z,71.66
2018-08-02T10:25:10.654Z,71.29
2018-08-02T10:26:16.940Z,69.33
2018-08-02T10:27:23.226Z,69.39
2018-08-02T10:28:29.472Z,70.37
2018-08-02T10:29:35.748Z,70.36
2018-08-02T10:30:41.772Z,70.38
2018-08-02T10:31:48.201Z,68.54
2018-08-02T10:32:54.313Z,69.46
2018-08-02T10:34:00.232Z,69.85
2018-08-02T10:35:06.133Z,68.38
2018-08-02T10:36:12.432Z,68.61
2018-08-02T10:37:18.864Z,68.13
2018-08-02T10:38:25.239Z,70.79
2018-08-02T10:39:31.485Z,68.94
2018-08-02T10:40:37.492Z,68.74
2018-08-02T10:41:43.524Z,68.89
2018-08-02T10:42:49.904Z,71.49
2018-08-02T10:43:56.274Z,71.20
2018-08-02T10:45:02.307Z,70.54
2018-08-02T10:46:08.300Z,72.85
2018-08-02T10:47:14.744Z,72.00
2018-08-02T10:48:21.012Z,72.37
2018-08-02T10:49:26.696Z,73.28
2018-08-02T10:50:32.818Z,73.96
2018-08-02T10:51:39.162Z,71.65
2018-08-02T10:52:45.440Z,73.82
2018-08-02T10:53:51.991Z,71.45
2018-08-02T10:54:58.329Z,72.85
2018-08-02T10:56:04.317Z,72.50
2018-08-02T10:57:10.923Z,71.44
2018-08-02T10:58:16.914Z,72.03
2018-08-02T10:59:22.916Z,72.48
2018-08-02T11:00:28.692Z,73.39
2018-08-02T11:01:34.787Z,71.50
2018-08-02T11:02:40.743Z,72.14
2018-08-02T11:03:46.774Z,73.15
2018-08-02T11:04:53.140Z,71.77
2018-08-02T11:05:58.856Z,73.25
2018-08-02T11:07:05.340Z,72.00
2018-08-02T11:08:11.267Z,73.40
2018-08-02T11:09:17.391Z,74.35
2018-08-02T11:10:23.527Z,73.43
2018-08-02T11:11:30.491Z,73.80
2018-08-02T11:12:36.659Z,72.89
2018-08-02T11:13:42.621Z,73.32
2018-08-02T11:14:49.048Z,73.64
2018-08-02T11:15:55.152Z,72.71
2018-08-02T11:17:01.577Z,73.34
2018-08-02T11:18:07.565Z,71.73
2018-08-02T11:19:13.582Z,70.81
2018-08-02T11:20:19.891Z,72.04
2018-08-02T11:21:25.876Z,72.57
2018-08-02T11:22:32.224Z,72.60
2018-08-02T11:23:38.233Z,70.76
2018-08-02T11:24:44.204Z,70.71
2018-08-02T11:25:50.322Z,72.69
2018-08-02T11:26:57.050Z,73.00
2018-08-02T11:28:02.816Z,74.18
2018-08-02T11:29:08.873Z,74.42
2018-08-02T11:30:16.119Z,72.54
2018-08-02T11:31:23.759Z,72.30
2018-08-02T11:32:29.762Z,73.09
2018-08-02T11:33:35.736Z,71.90
2018-08-02T11:34:41.737Z,72.74
2018-08-02T11:35:47.767Z,72.12
2018-08-02T11:36:53.816Z,71.51
2018-08-02T11:37:59.888Z,72.55
2018-08-02T11:39:05.173Z,70.71
2018-08-02T11:40:11.095Z,69.33
2018-08-02T11:41:17.116Z,68.81
2018-08-02T11:42:23.190Z,70.98
2018-08-02T11:43:29.180Z,71.26
2018-08-02T11:44:35.153Z,70.60
2018-08-02T11:45:41.553Z,70.53
2018-08-02T11:46:47.584Z,70.71
2018-08-02T11:47:53.625Z,71.36
2018-08-02T11:48:59.598Z,70.55
2018-08-02T11:50:05.353Z,68.97
2018-08-02T11:51:11.344Z,69.53
2018-08-02T11:52:18.259Z,69.52
2018-08-02T11:53:24.301Z,69.16
2018-08-02T11:54:30.330Z,70.16
2018-08-02T11:55:36.349Z,69.01
2018-08-02T11:56:42.407Z,67.83
2018-08-02T11:57:48.693Z,69.23
2018-08-02T11:58:54.657Z,67.95
2018-08-02T12:00:00.669Z,68.66
2018-08-02T12:01:06.676Z,67.63
2018-08-02T12:02:13.016Z,68.35
2018-08-02T12:03:19.363Z,68.07
2018-08-02T12:04:25.315Z,67.03
2018-08-02T12:05:31.324Z,66.43
2018-08-02T12:06:38.779Z,66.49
2018-08-02T12:07:45.494Z,66.00
2018-08-02T12:08:51.153Z,65.52
2018-08-02T12:09:57.283Z,65.56
2018-08-02T12:11:03.320Z,64.44
2018-08-02T12:12:09.301Z,65.02
2018-08-02T12:13:15.323Z,65.36
2018-08-02T12:14:21.300Z,67.07
2018-08-02T12:15:28.131Z,63.84
2018-08-02T12:16:34.231Z,63.52
2018-08-02T12:17:40.543Z,63.41
2018-08-02T12:18:46.557Z,62.62
2018-08-02T12:19:53.194Z,63.77
2018-08-02T12:20:59.180Z,63.17
2018-08-02T12:22:05.189Z,63.90
2018-08-02T12:23:11.217Z,64.56
2018-08-02T12:24:16.876Z,61.36
2018-08-02T12:25:22.879Z,62.04
2018-08-02T12:26:29.027Z,62.72
2018-08-02T12:27:35.000Z,63.71
2018-08-02T12:28:41.052Z,61.01
2018-08-02T12:29:47.125Z,60.32
2018-08-02T12:30:53.131Z,61.22
2018-08-02T12:31:59.466Z,61.55
2018-08-02T12:33:05.483Z,59.58
2018-08-02T12:34:11.343Z,59.13
2018-08-02T12:35:17.343Z,59.64
2018-08-02T12:36:23.339Z,58.92
2018-08-02T12:37:29.368Z,58.62
2018-08-02T12:38:35.383Z,58.49
2018-08-02T12:39:41.361Z,57.77
2018-08-02T12:40:47.382Z,58.49
2018-08-02T12:41:53.009Z,58.41
2018-08-02T12:42:59.264Z,58.01
2018-08-02T12:44:05.192Z,57.24
2018-08-02T12:45:11.208Z,56.86
2018-08-02T12:46:17.171Z,56.56
2018-08-02T12:47:23.205Z,56.95
2018-08-02T12:48:29.249Z,57.83
2018-08-02T12:49:34.744Z,57.68
2018-08-02T12:50:40.697Z,56.76
2018-08-02T12:51:47.140Z,57.41
2018-08-02T12:52:53.288Z,57.72
2018-08-02T12:53:59.652Z,56.44
2018-08-02T12:55:05.440Z,56.54
2018-08-02T12:56:11.512Z,56.25
2018-08-02T12:57:17.749Z,55.76
2018-08-02T12:58:23.788Z,58.88
2018-08-02T12:59:29.849Z,55.82
2018-08-02T13:00:35.868Z,55.36
2018-08-02T13:01:41.975Z,54.40
2018-08-02T13:02:48.112Z,55.25
2018-08-02T13:03:54.516Z,55.54
2018-08-02T13:05:00.484Z,55.38
2018-08-02T13:06:06.492Z,54.70
2018-08-02T13:07:12.527Z,54.66
2018-08-02T13:08:18.547Z,56.81
2018-08-02T13:09:24.563Z,56.78
2018-08-02T13:10:30.899Z,56.15
2018-08-02T13:11:37.168Z,55.71
2018-08-02T13:12:43.136Z,55.47
2018-08-02T13:13:49.184Z,55.40
2018-08-02T13:14:54.960Z,54.85
2018-08-02T13:16:01.005Z,54.89
2018-08-02T13:17:06.300Z,55.11
2018-08-02T13:18:12.465Z,55.54
2018-08-02T13:19:18.787Z,54.91
2018-08-02T13:20:24.717Z,54.95
2018-08-02T13:21:30.287Z,54.42
2018-08-02T13:22:36.368Z,53.72
2018-08-02T13:23:42.211Z,54.20
2018-08-02T13:24:48.223Z,53.43
2018-08-02T13:25:55.063Z,53.58
2018-08-02T13:27:01.109Z,53.39
2018-08-02T13:28:06.758Z,53.68
2018-08-02T13:29:13.048Z,53.56
2018-08-02T13:30:18.717Z,53.44
2018-08-02T13:31:25.012Z,53.39
2018-08-02T13:32:31.064Z,51.92
2018-08-02T13:33:37.060Z,51.58
2018-08-02T13:34:43.004Z,52.44
2018-08-02T13:35:49.297Z,52.51
2018-08-02T13:36:55.568Z,53.98
2018-08-02T13:38:01.276Z,53.31
2018-08-02T13:39:06.612Z,52.38
2018-08-02T13:40:13.796Z,54.07
2018-08-02T13:41:21.231Z,53.05
2018-08-02T13:42:30.179Z,52.53
2018-08-02T13:43:36.498Z,53.18
2018-08-02T13:44:42.619Z,52.42
2018-08-02T13:45:48.849Z,51.90
2018-08-02T13:46:54.992Z,52.37
2018-08-02T13:48:01.749Z,52.95
2018-08-02T13:49:07.800Z,50.73
2018-08-02T13:50:13.386Z,51.65
2018-08-02T13:51:19.455Z,50.60
2018-08-02T13:52:25.200Z,51.29
2018-08-02T13:53:31.756Z,51.94
2018-08-02T13:54:37.825Z,52.03
2018-08-02T13:55:44.829Z,52.15
2018-08-02T13:56:50.840Z,51.67
2018-08-02T13:57:56.809Z,51.69
2018-08-02T13:59:02.852Z,52.09
2018-08-02T14:00:08.789Z,51.02
2018-08-02T14:01:14.742Z,51.03
2018-08-02T14:02:20.401Z,50.55
2018-08-02T14:03:26.365Z,51.30
2018-08-02T14:04:32.504Z,52.47
2018-08-02T14:05:39.030Z,52.06
2018-08-02T14:06:44.965Z,51.77
2018-08-02T14:07:50.989Z,53.37
2018-08-02T14:08:57.029Z,52.50
2018-08-02T14:10:03.173Z,53.11
2018-08-02T14:11:09.007Z,53.18
2018-08-02T14:12:14.731Z,53.55
2018-08-02T14:13:20.673Z,53.21
2018-08-02T14:14:26.736Z,54.37
2018-08-02T14:15:32.722Z,52.15